Lawrence, New York
Current Conditions -  °F | °C
As of 4:51 AM on Friday 19 Dec 2014 (Local Time) from KJFK Reporting Station
Scattered Clouds Scattered Clouds  
Wind Chill: 29°   Ceiling: Unl
Heat Index: 38°   Visibility: 10mi
Dew Point: 24°   Wind: 17mph
Humidity: 57%   Direction: 310°NW
Pressure: 29.99"   Gusts: NA
Location:  40.61°N, 73.74°W
Report Text: KJFK 190951Z 31015KT 10SM FEW033 SCT055 SCT250 03/M04 A2999 RMK AO2 SLP155 T00331044 $
Loading
Personal Weather Stations






























Interactive Weather Map New forecast layout! Learn more

10-Day Weather Forecast

Advertisements
Track Severe Weather on mobile